createdAt,value
2022-10-16T00:01:45.338Z,12.53
2022-10-16T00:04:13.144Z,12.46
2022-10-16T00:06:40.982Z,12.48
2022-10-16T00:09:09.190Z,12.47
2022-10-16T00:11:40.304Z,12.33
2022-10-16T00:14:13.080Z,12.31
2022-10-16T00:16:44.044Z,12.29
2022-10-16T00:19:13.399Z,12.32
2022-10-16T00:21:40.923Z,12.24
2022-10-16T00:24:11.656Z,12.20
2022-10-16T00:26:40.345Z,12.23
2022-10-16T00:29:08.608Z,12.14
2022-10-16T00:31:36.501Z,12.16
2022-10-16T00:34:04.460Z,12.15
2022-10-16T00:36:33.096Z,12.16
2022-10-16T00:39:02.171Z,12.07
2022-10-16T00:41:32.820Z,12.04
2022-10-16T00:44:22.631Z,12.03
2022-10-16T00:46:51.107Z,11.96
2022-10-16T00:49:22.016Z,12.01
2022-10-16T00:51:55.366Z,12.02
2022-10-16T00:54:30.207Z,11.93
2022-10-16T00:57:07.698Z,11.88
2022-10-16T00:59:40.474Z,11.88
2022-10-16T01:02:12.671Z,11.86
2022-10-16T01:04:53.634Z,11.82
2022-10-16T01:07:31.416Z,11.76
2022-10-16T01:10:23.279Z,11.78
2022-10-16T01:13:09.220Z,11.83
2022-10-16T01:16:07.743Z,11.87
2022-10-16T01:19:15.328Z,11.72
2022-10-16T01:21:48.162Z,11.68
2022-10-16T01:27:21.431Z,11.71
2022-10-16T01:30:14.903Z,11.75
2022-10-16T01:33:18.347Z,11.73
2022-10-16T01:35:54.599Z,11.83
2022-10-16T01:38:36.019Z,11.77
2022-10-16T01:41:17.252Z,11.59
2022-10-16T01:44:03.892Z,11.54
2022-10-16T01:46:34.152Z,11.58
2022-10-16T01:49:04.970Z,11.52
2022-10-16T01:51:33.338Z,11.54
2022-10-16T01:54:03.226Z,11.53
2022-10-16T01:56:31.636Z,11.48
2022-10-16T01:59:12.580Z,11.55
2022-10-16T02:01:46.978Z,11.53
2022-10-16T02:04:34.587Z,11.65
2022-10-16T02:07:05.172Z,11.58
2022-10-16T02:09:35.908Z,11.50
2022-10-16T02:12:31.177Z,11.56
2022-10-16T02:14:58.965Z,11.60
2022-10-16T02:17:27.643Z,11.52
2022-10-16T02:19:58.377Z,11.44
2022-10-16T02:22:39.028Z,11.33
2022-10-16T02:25:19.091Z,11.04
2022-10-16T02:28:24.678Z,10.84
2022-10-16T02:31:03.120Z,10.78
2022-10-16T02:33:32.247Z,10.76
2022-10-16T02:36:00.027Z,10.86
2022-10-16T02:38:28.812Z,10.71
2022-10-16T02:40:56.731Z,10.65
2022-10-16T02:43:24.724Z,10.78
2022-10-16T02:45:52.656Z,10.71
2022-10-16T02:48:20.105Z,10.73
2022-10-16T02:50:47.546Z,10.64
2022-10-16T02:53:15.003Z,10.69
2022-10-16T02:55:43.033Z,10.79
2022-10-16T02:58:10.562Z,10.69
2022-10-16T03:00:38.170Z,10.65
2022-10-16T03:03:05.565Z,10.59
2022-10-16T03:05:32.996Z,10.76
2022-10-16T03:08:01.719Z,10.82
2022-10-16T03:10:29.432Z,10.77
2022-10-16T03:12:56.881Z,10.83
2022-10-16T03:15:24.404Z,10.62
2022-10-16T03:17:51.861Z,10.44
2022-10-16T03:20:19.346Z,10.38
2022-10-16T03:22:46.761Z,10.63
2022-10-16T03:25:14.302Z,10.63
2022-10-16T03:27:41.813Z,10.56
2022-10-16T03:30:10.331Z,10.42
2022-10-16T03:32:37.832Z,10.63
2022-10-16T03:35:05.770Z,10.58
2022-10-16T03:37:33.533Z,10.64
2022-10-16T03:40:01.022Z,10.58
2022-10-16T03:42:28.468Z,10.50
2022-10-16T03:44:55.860Z,10.56
2022-10-16T03:47:25.014Z,10.43
2022-10-16T03:49:52.678Z,10.66
2022-10-16T03:52:20.169Z,10.37
2022-10-16T03:54:47.694Z,10.09
2022-10-16T03:57:15.099Z,9.98
2022-10-16T03:59:42.565Z,9.86
2022-10-16T04:02:09.943Z,9.71
2022-10-16T04:04:37.664Z,9.81
2022-10-16T04:07:05.110Z,9.84
2022-10-16T04:09:32.679Z,9.92
2022-10-16T04:12:00.096Z,9.75
2022-10-16T04:14:27.483Z,9.51
2022-10-16T04:16:54.902Z,9.78
2022-10-16T04:19:22.356Z,9.74
2022-10-16T04:21:49.749Z,9.53
2022-10-16T04:24:17.177Z,9.41
2022-10-16T04:26:44.577Z,9.28
2022-10-16T04:29:12.094Z,9.23
2022-10-16T04:31:39.651Z,9.17
2022-10-16T04:34:07.167Z,9.25
2022-10-16T04:36:34.591Z,9.27
2022-10-16T04:39:02.000Z,9.32
2022-10-16T04:41:29.485Z,9.61
2022-10-16T04:43:56.924Z,9.72
2022-10-16T04:46:24.412Z,9.94
2022-10-16T04:48:51.841Z,9.83
2022-10-16T04:51:19.935Z,9.85
2022-10-16T04:53:49.842Z,9.99
2022-10-16T04:56:17.967Z,9.93
2022-10-16T04:58:45.841Z,10.08
2022-10-16T05:01:13.358Z,10.22
2022-10-16T05:03:40.775Z,10.26
2022-10-16T05:06:08.800Z,10.30
2022-10-16T05:08:36.347Z,10.24
2022-10-16T05:11:04.043Z,10.52
2022-10-16T05:13:31.465Z,10.70
2022-10-16T05:15:58.899Z,10.81
2022-10-16T05:18:26.321Z,10.99
2022-10-16T05:20:53.827Z,11.23
2022-10-16T05:23:21.252Z,11.38
2022-10-16T05:25:59.358Z,11.41
2022-10-16T05:28:29.042Z,11.31
2022-10-16T05:30:57.039Z,11.47
2022-10-16T05:33:26.548Z,11.54
2022-10-16T05:35:53.974Z,11.76
2022-10-16T05:38:24.150Z,11.88
2022-10-16T05:40:55.792Z,12.06
2022-10-16T05:43:23.629Z,12.19
2022-10-16T05:45:59.740Z,12.24
2022-10-16T05:48:28.704Z,12.68
2022-10-16T05:51:09.736Z,13.00
2022-10-16T05:53:40.051Z,13.07
2022-10-16T05:56:10.208Z,13.47
2022-10-16T05:58:41.391Z,13.81
2022-10-16T06:01:20.222Z,13.93
2022-10-16T06:03:48.486Z,14.18
2022-10-16T06:06:21.736Z,14.50
2022-10-16T06:08:50.859Z,14.21
2022-10-16T06:11:21.716Z,14.05
2022-10-16T06:13:54.859Z,13.78
2022-10-16T06:16:22.496Z,13.49
2022-10-16T06:18:51.561Z,13.74
2022-10-16T06:21:23.507Z,13.95
2022-10-16T06:23:50.958Z,14.03
2022-10-16T06:26:22.082Z,14.23
2022-10-16T06:28:49.865Z,14.12
2022-10-16T06:31:18.466Z,14.11
2022-10-16T06:33:47.950Z,14.35
2022-10-16T06:36:18.279Z,14.30
2022-10-16T06:38:46.536Z,13.90
2022-10-16T06:41:17.667Z,14.06
2022-10-16T06:43:46.446Z,14.39
2022-10-16T06:46:17.002Z,14.46
2022-10-16T06:48:44.721Z,14.56
2022-10-16T06:51:21.267Z,14.43
2022-10-16T06:54:03.980Z,14.50
2022-10-16T06:56:34.213Z,14.65
2022-10-16T06:59:03.045Z,14.63
2022-10-16T07:01:31.216Z,14.87
2022-10-16T07:03:58.859Z,14.88
2022-10-16T07:06:28.307Z,14.90
2022-10-16T07:08:56.047Z,15.03
2022-10-16T07:11:25.356Z,15.45
2022-10-16T07:13:56.426Z,15.44
2022-10-16T07:16:30.710Z,15.66
2022-10-16T07:19:01.873Z,16.12
2022-10-16T07:21:36.709Z,15.95
2022-10-16T07:24:07.146Z,16.24
2022-10-16T07:26:38.749Z,16.14
2022-10-16T07:29:17.532Z,16.12
2022-10-16T07:31:45.441Z,16.39
2022-10-16T07:34:14.812Z,16.63
2022-10-16T07:39:14.961Z,16.45
2022-10-16T07:41:42.412Z,16.49
2022-10-16T07:44:10.004Z,17.29
2022-10-16T07:46:37.480Z,17.61
2022-10-16T07:49:05.494Z,17.05
2022-10-16T07:51:34.178Z,16.93
2022-10-16T07:54:02.425Z,17.04
2022-10-16T07:56:33.115Z,17.22
2022-10-16T07:59:06.286Z,17.52
2022-10-16T08:01:34.046Z,17.78
2022-10-16T08:04:03.118Z,17.91
2022-10-16T08:06:30.587Z,17.97
2022-10-16T08:08:58.198Z,18.08
2022-10-16T08:11:25.974Z,17.84
2022-10-16T08:13:55.935Z,18.33
2022-10-16T08:16:24.218Z,18.07
2022-10-16T08:18:53.341Z,18.35
2022-10-16T08:21:26.701Z,18.57
2022-10-16T08:23:58.147Z,18.93
2022-10-16T08:26:28.606Z,18.98
2022-10-16T08:28:57.317Z,18.42
2022-10-16T08:31:25.460Z,18.25
2022-10-16T08:33:53.696Z,19.06
2022-10-16T08:36:21.982Z,19.20
2022-10-16T08:38:51.457Z,19.12
2022-10-16T08:41:32.900Z,19.07
2022-10-16T08:44:37.764Z,19.08
2022-10-16T08:47:24.412Z,19.45
2022-10-16T08:50:15.466Z,19.24
2022-10-16T08:52:45.867Z,19.42
2022-10-16T08:55:34.185Z,19.65
2022-10-16T08:58:02.305Z,19.47
2022-10-16T09:00:30.793Z,19.50
2022-10-16T09:03:26.460Z,19.37
2022-10-16T09:06:23.968Z,19.49
2022-10-16T09:09:24.504Z,19.68
2022-10-16T09:11:54.966Z,19.91
2022-10-16T09:15:12.786Z,20.12
2022-10-16T09:18:27.456Z,20.50
2022-10-16T09:21:25.358Z,20.84
2022-10-16T09:23:52.971Z,20.78
2022-10-16T09:28:54.656Z,20.55
2022-10-16T09:31:24.478Z,20.95
2022-10-16T09:34:02.017Z,21.04
2022-10-16T09:36:45.195Z,21.01
2022-10-16T09:39:13.621Z,21.20
2022-10-16T09:41:46.650Z,21.07
2022-10-16T09:44:30.995Z,20.98
2022-10-16T09:47:12.278Z,21.05
2022-10-16T09:49:39.747Z,21.01
2022-10-16T09:52:16.982Z,21.13
2022-10-16T09:54:58.200Z,21.73
2022-10-16T09:57:28.120Z,21.72
2022-10-16T09:59:59.174Z,22.17
2022-10-16T10:02:37.238Z,21.90
2022-10-16T10:05:20.389Z,21.71
2022-10-16T10:07:53.419Z,21.77
2022-10-16T10:10:30.795Z,21.60
2022-10-16T10:13:01.068Z,21.86
2022-10-16T10:15:35.688Z,21.77
2022-10-16T10:18:04.336Z,22.07
2022-10-16T10:20:39.204Z,22.27
2022-10-16T10:23:28.047Z,21.85
2022-10-16T10:25:57.990Z,21.88
2022-10-16T10:29:03.084Z,22.06
2022-10-16T10:32:01.104Z,22.68
2022-10-16T10:34:54.198Z,22.74
2022-10-16T10:37:43.791Z,22.79
2022-10-16T10:40:44.370Z,23.38
2022-10-16T10:43:20.158Z,22.89
2022-10-16T10:45:49.945Z,22.73
2022-10-16T10:48:39.141Z,23.18
2022-10-16T10:51:14.385Z,23.49
2022-10-16T10:54:19.192Z,23.48
2022-10-16T10:57:10.453Z,23.88
2022-10-16T11:00:21.928Z,23.98
2022-10-16T11:03:14.564Z,23.73
2022-10-16T11:06:06.373Z,23.98
2022-10-16T11:08:50.134Z,24.37
2022-10-16T11:11:28.328Z,24.90
2022-10-16T11:14:17.490Z,25.48
2022-10-16T11:17:18.266Z,25.94
2022-10-16T11:20:17.427Z,25.72
2022-10-16T11:23:29.817Z,25.66
2022-10-16T11:26:03.524Z,25.31
2022-10-16T11:28:53.104Z,25.09
2022-10-16T11:31:47.010Z,25.22
2022-10-16T11:34:31.729Z,25.35
2022-10-16T11:37:37.964Z,25.54
2022-10-16T11:40:26.078Z,25.51
2022-10-16T11:43:07.385Z,25.11
2022-10-16T11:45:45.949Z,25.29
2022-10-16T11:48:31.374Z,25.98
2022-10-16T11:51:16.354Z,26.36
2022-10-16T11:53:47.540Z,26.24
2022-10-16T11:56:20.139Z,26.82
2022-10-16T11:58:57.220Z,27.08
2022-10-16T12:01:34.442Z,27.47
2022-10-16T12:04:28.664Z,28.09
2022-10-16T12:07:10.136Z,28.53
2022-10-16T12:09:42.274Z,28.71
2022-10-16T12:13:05.372Z,28.08
2022-10-16T12:18:26.220Z,28.07
2022-10-16T12:21:08.568Z,27.84
2022-10-16T12:23:51.736Z,28.14
2022-10-16T12:26:35.363Z,27.37
2022-10-16T12:29:40.140Z,27.95
2022-10-16T12:32:48.511Z,28.38
2022-10-16T12:35:33.294Z,28.84
2022-10-16T12:38:46.225Z,29.30
2022-10-16T12:41:15.694Z,29.49
2022-10-16T12:43:46.677Z,29.63
2022-10-16T12:46:14.310Z,29.39
2022-10-16T12:48:49.469Z,29.28
2022-10-16T12:51:32.863Z,28.79
2022-10-16T12:55:00.141Z,29.09
2022-10-16T12:57:47.908Z,29.50
2022-10-16T13:00:42.006Z,29.97
2022-10-16T13:03:39.591Z,30.58
2022-10-16T13:06:28.305Z,30.58
2022-10-16T13:09:10.813Z,30.58
2022-10-16T13:12:20.852Z,31.03
2022-10-16T13:15:13.043Z,31.25
2022-10-16T13:18:06.821Z,31.30
2022-10-16T13:20:58.944Z,31.72
2022-10-16T13:24:15.416Z,32.10
2022-10-16T13:26:59.886Z,31.34
2022-10-16T13:29:35.481Z,31.29
2022-10-16T13:32:15.682Z,30.97
2022-10-16T13:34:49.725Z,31.68
2022-10-16T13:37:24.586Z,32.13
2022-10-16T13:39:52.820Z,32.39
2022-10-16T13:42:29.285Z,31.55
2022-10-16T13:44:58.208Z,30.97
2022-10-16T13:47:29.236Z,31.38
2022-10-16T13:50:26.259Z,30.76
2022-10-16T13:53:03.844Z,30.01
2022-10-16T13:55:52.945Z,30.31
2022-10-16T13:58:21.544Z,30.08
2022-10-16T14:01:07.155Z,30.17
2022-10-16T14:03:36.710Z,30.22
2022-10-16T14:06:32.626Z,30.17
2022-10-16T14:09:19.160Z,29.92
2022-10-16T14:12:03.870Z,29.80
2022-10-16T14:14:53.855Z,29.97
2022-10-16T14:17:30.126Z,29.59
2022-10-16T14:20:04.073Z,28.97
2022-10-16T14:22:39.169Z,28.53
2022-10-16T14:25:33.235Z,28.88
2022-10-16T14:28:25.930Z,29.23
2022-10-16T14:31:26.103Z,29.23
2022-10-16T14:33:53.608Z,28.81
2022-10-16T14:36:22.852Z,29.13
2022-10-16T14:39:14.839Z,29.03
2022-10-16T14:41:53.687Z,28.82
2022-10-16T14:44:42.547Z,28.14
2022-10-16T14:47:31.182Z,27.91
2022-10-16T14:50:00.904Z,27.44
2022-10-16T14:52:28.443Z,27.29
2022-10-16T14:54:57.491Z,26.63
2022-10-16T14:57:29.606Z,25.93
2022-10-16T14:59:59.453Z,24.85
2022-10-16T15:02:40.058Z,24.30
2022-10-16T15:05:16.021Z,23.86
2022-10-16T15:07:43.879Z,23.24
2022-10-16T15:10:12.078Z,23.15
2022-10-16T15:12:39.845Z,22.31
2022-10-16T15:15:25.163Z,22.12
2022-10-16T15:17:57.898Z,21.87
2022-10-16T15:20:28.796Z,21.74
2022-10-16T15:22:56.350Z,21.59
2022-10-16T15:25:48.360Z,21.39
2022-10-16T15:28:18.130Z,21.16
2022-10-16T15:30:46.736Z,20.97
2022-10-16T15:33:20.556Z,20.98
2022-10-16T15:35:50.127Z,20.87
2022-10-16T15:38:19.938Z,20.63
2022-10-16T15:40:51.257Z,20.60
2022-10-16T15:43:20.113Z,20.57
2022-10-16T15:46:10.860Z,20.50
2022-10-16T15:48:38.905Z,20.37
2022-10-16T15:51:09.153Z,20.18
2022-10-16T15:53:38.678Z,20.27
2022-10-16T15:56:27.231Z,20.05
2022-10-16T15:58:55.318Z,19.86
2022-10-16T16:01:25.780Z,19.66
2022-10-16T16:03:57.158Z,19.54
2022-10-16T16:06:28.252Z,19.37
2022-10-16T16:08:55.793Z,19.36
2022-10-16T16:11:25.823Z,19.33
2022-10-16T16:13:55.673Z,19.21
2022-10-16T16:16:23.241Z,19.08
2022-10-16T16:18:55.155Z,18.86
2022-10-16T16:21:28.089Z,18.82
2022-10-16T16:23:56.691Z,18.73
2022-10-16T16:26:28.941Z,18.57
2022-10-16T16:28:57.756Z,18.50
2022-10-16T16:31:27.955Z,18.29
2022-10-16T16:33:57.902Z,18.19
2022-10-16T16:36:27.469Z,18.13
2022-10-16T16:38:54.981Z,18.00
2022-10-16T16:41:27.464Z,17.84
2022-10-16T16:44:02.862Z,17.91
2022-10-16T16:46:30.905Z,17.64
2022-10-16T16:49:00.396Z,17.54
2022-10-16T16:51:31.381Z,17.48
2022-10-16T16:53:59.786Z,17.40
2022-10-16T16:56:37.991Z,17.31
2022-10-16T16:59:06.006Z,17.37
2022-10-16T17:01:33.926Z,17.37
2022-10-16T17:04:03.210Z,17.21
2022-10-16T17:06:33.910Z,17.21
2022-10-16T17:09:07.427Z,17.19
2022-10-16T17:11:36.278Z,17.06
2022-10-16T17:14:05.185Z,17.04
2022-10-16T17:16:37.090Z,17.04
2022-10-16T17:19:11.423Z,17.02
2022-10-16T17:21:40.469Z,16.92
2022-10-16T17:24:09.098Z,16.78
2022-10-16T17:26:38.928Z,16.78
2022-10-16T17:29:07.499Z,16.81
2022-10-16T17:31:37.764Z,16.81
2022-10-16T17:34:08.801Z,16.65
2022-10-16T17:36:44.207Z,16.55
2022-10-16T17:39:14.733Z,16.60
2022-10-16T17:41:48.750Z,16.69
2022-10-16T17:44:20.279Z,16.58
2022-10-16T17:46:52.130Z,16.54
2022-10-16T17:51:57.426Z,16.34
2022-10-16T17:54:25.656Z,16.21
2022-10-16T17:56:54.908Z,16.15
2022-10-16T17:59:24.707Z,16.23
2022-10-16T18:01:53.738Z,16.09
2022-10-16T18:04:23.509Z,16.05
2022-10-16T18:06:56.055Z,16.03
2022-10-16T18:09:25.120Z,15.97
2022-10-16T18:12:11.373Z,15.80
2022-10-16T18:14:38.888Z,15.61
2022-10-16T18:17:07.312Z,15.52
2022-10-16T18:19:36.655Z,15.44
2022-10-16T18:22:05.244Z,15.33
2022-10-16T18:24:37.535Z,15.08
2022-10-16T18:27:05.892Z,15.27
2022-10-16T18:29:33.832Z,15.18
2022-10-16T18:32:02.475Z,15.41
2022-10-16T18:34:32.351Z,15.40
2022-10-16T18:37:02.665Z,14.98
2022-10-16T18:39:31.540Z,14.79
2022-10-16T18:42:00.087Z,14.73
2022-10-16T18:44:31.256Z,14.65
2022-10-16T18:46:59.269Z,14.55
2022-10-16T18:49:35.764Z,14.42
2022-10-16T18:52:05.423Z,14.31
2022-10-16T18:54:36.129Z,14.27
2022-10-16T18:57:05.378Z,14.42
2022-10-16T18:59:34.498Z,14.48
2022-10-16T19:02:02.037Z,14.30
2022-10-16T19:04:29.685Z,14.13
2022-10-16T19:06:57.313Z,14.05
2022-10-16T19:09:25.760Z,13.97
2022-10-16T19:11:53.992Z,14.03
2022-10-16T19:14:22.008Z,14.02
2022-10-16T19:16:52.463Z,13.94
2022-10-16T19:19:24.012Z,14.21
2022-10-16T19:21:56.373Z,14.16
2022-10-16T19:24:25.571Z,14.06
2022-10-16T19:26:53.094Z,14.12
2022-10-16T19:29:20.586Z,14.10
2022-10-16T19:31:49.452Z,14.15
2022-10-16T19:34:16.919Z,14.16
2022-10-16T19:36:44.836Z,14.12
2022-10-16T19:41:49.626Z,14.02
2022-10-16T19:44:20.299Z,13.92
2022-10-16T19:46:49.184Z,13.86
2022-10-16T19:49:22.598Z,13.84
2022-10-16T19:51:57.603Z,14.02
2022-10-16T19:54:25.284Z,13.95
2022-10-16T19:56:52.964Z,13.93
2022-10-16T19:59:21.995Z,13.82
2022-10-16T20:01:49.584Z,13.75
2022-10-16T20:04:17.667Z,13.76
2022-10-16T20:06:46.386Z,13.76
2022-10-16T20:09:14.106Z,13.64
2022-10-16T20:11:41.986Z,13.73
2022-10-16T20:14:09.893Z,13.56
2022-10-16T20:16:40.306Z,13.46
2022-10-16T20:19:08.034Z,13.31
2022-10-16T20:21:36.460Z,13.27
2022-10-16T20:24:06.386Z,13.06
2022-10-16T20:26:34.454Z,13.05
2022-10-16T20:29:02.514Z,12.96
2022-10-16T20:31:33.485Z,12.96
2022-10-16T20:34:06.407Z,12.85
2022-10-16T20:36:35.711Z,12.78
2022-10-16T20:39:05.492Z,12.68
2022-10-16T20:41:33.984Z,12.73
2022-10-16T20:44:06.582Z,12.66
2022-10-16T20:46:34.793Z,12.66
2022-10-16T20:49:10.886Z,12.54
2022-10-16T20:51:44.099Z,12.71
2022-10-16T20:54:12.487Z,12.66
2022-10-16T20:56:40.220Z,12.62
2022-10-16T20:59:07.724Z,12.66
2022-10-16T21:01:36.802Z,12.58
2022-10-16T21:04:08.470Z,12.49
2022-10-16T21:06:39.011Z,12.54
2022-10-16T21:09:07.971Z,12.58
2022-10-16T21:11:37.413Z,12.55
2022-10-16T21:14:07.462Z,12.58
2022-10-16T21:16:35.624Z,12.65
2022-10-16T21:19:04.224Z,12.60
2022-10-16T21:21:35.778Z,12.52
2022-10-16T21:24:04.413Z,12.36
2022-10-16T21:26:32.310Z,12.38
2022-10-16T21:29:07.300Z,12.31
2022-10-16T21:31:35.304Z,12.34
2022-10-16T21:34:04.137Z,12.29
2022-10-16T21:36:35.564Z,12.23
2022-10-16T21:39:15.728Z,12.17
2022-10-16T21:41:46.343Z,12.07
2022-10-16T21:44:14.346Z,11.93
2022-10-16T21:46:44.192Z,11.92
2022-10-16T21:49:19.241Z,11.90
2022-10-16T21:51:50.643Z,11.75
2022-10-16T21:54:22.054Z,11.82
2022-10-16T21:56:49.625Z,11.79
2022-10-16T21:59:17.797Z,11.81
2022-10-16T22:01:45.584Z,11.86
2022-10-16T22:04:15.977Z,11.83
2022-10-16T22:06:45.773Z,11.77
2022-10-16T22:09:14.709Z,11.85
2022-10-16T22:11:45.183Z,11.81
2022-10-16T22:14:17.769Z,11.68
2022-10-16T22:16:46.562Z,11.58
2022-10-16T22:19:17.240Z,11.54
2022-10-16T22:21:48.173Z,11.60
2022-10-16T22:24:16.883Z,11.63
2022-10-16T22:26:44.712Z,11.59
2022-10-16T22:29:14.569Z,11.46
2022-10-16T22:31:43.162Z,11.40
2022-10-16T22:34:13.884Z,11.47
2022-10-16T22:36:41.650Z,11.31
2022-10-16T22:39:09.905Z,11.41
2022-10-16T22:41:37.799Z,11.51
2022-10-16T22:44:05.478Z,11.43
2022-10-16T22:46:32.990Z,11.34
2022-10-16T22:49:00.542Z,11.40
2022-10-16T22:51:28.672Z,11.44
2022-10-16T22:53:59.145Z,11.47
2022-10-16T22:56:26.851Z,11.45
2022-10-16T22:58:54.520Z,11.36
2022-10-16T23:01:30.195Z,11.26
2022-10-16T23:03:58.191Z,11.19
2022-10-16T23:06:25.715Z,11.08
2022-10-16T23:08:55.310Z,11.08
2022-10-16T23:11:27.324Z,11.06
2022-10-16T23:13:55.315Z,11.06
2022-10-16T23:16:24.045Z,11.03
2022-10-16T23:18:52.420Z,11.15
2022-10-16T23:21:24.307Z,10.94
2022-10-16T23:23:53.535Z,11.04
2022-10-16T23:26:25.722Z,10.98
2022-10-16T23:28:53.579Z,10.86
2022-10-16T23:31:21.449Z,10.91
2022-10-16T23:33:49.323Z,10.83
2022-10-16T23:36:20.626Z,10.63
2022-10-16T23:38:49.918Z,10.41
2022-10-16T23:41:19.321Z,10.12
2022-10-16T23:43:47.179Z,10.03
2022-10-16T23:46:15.796Z,9.53
2022-10-16T23:48:44.260Z,9.57
2022-10-16T23:51:12.888Z,9.44
2022-10-16T23:53:40.822Z,9.25
2022-10-16T23:56:08.888Z,9.28
2022-10-16T23:58:36.488Z,9.26
